Nearby METAR Reports

 

YMEN - Melbourne/Essendon, Australia
Distance from station: WNW 102km
Updated: 27/11/2021 12:00
Mostly cloudy
Mostly cloudy
 Wind from ESE
Wind: ESE 31 km/h
Temperature: 19°C
Dew Point: 8°C
Humidity: 49%
Barometer: 1022 hPa
Clouds: Mostly cloudy
Visibility: 10 km
Cloud details: Mostly cloudy 1372 m
2021/11/27 01:00 YMEN 270100Z AUTO 12017KT 9999 // BKN045 19/08 Q1022
YMML - Melbourne Intl A, Australia
Distance from station: WNW 111km
Updated: 27/11/2021 12:30
Mostly cloudy
Mostly cloudy
 Wind from SE
Wind: SE 24 km/h
Temperature: 19°C
Dew Point: 8°C
Humidity: 49%
Barometer: 1022 hPa
Clouds: Mostly cloudy
Visibility: 10 km
Cloud details: Mostly cloudy 1372 m
2021/11/27 01:30 YMML 270130Z 14013KT 9999 BKN045 19/08 Q1022
 
YMAV - Avalon Airport, Australia
Distance from station: W 135km
Updated: 27/11/2021 12:30
Partly cloudy
Partly cloudy
 Wind from SE
Wind: SE 31 km/h
Temperature: 19°C
Dew Point: 7°C
Humidity: 46%
Barometer: 1023 hPa
Clouds: Partly cloudy
Visibility: 10 km
Cloud details: Partly cloudy 1494 m
2021/11/27 01:30 YMAV 270130Z AUTO 13017KT 9999 // SCT049 19/07 Q1023 RF00.0/000.0
YWGT - Wangaratta Arp, Australia
Distance from station: N 172km
Updated: 27/11/2021 12:00
Clear
Clear
 Wind from SE
Wind: SE 20 km/h
Temperature: 20°C
Dew Point: 5°C
Humidity: 38%
Barometer: 1020 hPa
Clouds: Clear
Visibility: 10 km
2021/11/27 01:00 YWGT 270100Z AUTO 13011KT 9999 // NCD 20/05 Q1020